Time,TemperatureF,DewpointF,PressureIn,WindDirection,WindDirectionDegrees,WindSpeedMPH,WindSpeedGustMPH,Humidity,HourlyPrecipIn,Conditions,Clouds,dailyrainin,SoftwareType,DateUTC
2013-05-01 00:00:00,74.9,12.2,29.87,NW,319,24.2,24.2,9,0.00,CLR,,0.00,WeatherDisplay:10.37,2013-05-01 07:00:00,
2013-05-01 00:05:00,74.6,14.4,29.87,NNW,338,13.8,13.8,10,0.00,CLR,,0.00,WeatherDisplay:10.37,2013-05-01 07:05:00,
2013-05-01 00:10:00,74.4,14.2,29.87,WNW,302,11.5,11.5,10,0.00,CLR,,0.00,WeatherDisplay:10.37,2013-05-01 07:10:00,
2013-05-01 00:15:00,74.2,14.1,29.87,NNE,23,18.4,18.4,10,0.00,CLR,,0.00,WeatherDisplay:10.37,2013-05-01 07:15:00,
2013-05-01 00:20:00,73.9,13.8,29.87,NNW,342,16.1,16.1,10,0.00,CLR,,0.00,WeatherDisplay:10.37,2013-05-01 07:20:00,
2013-05-01 00:25:00,73.7,13.7,29.87,North,357,15.0,15.0,10,0.00,CLR,,0.00,WeatherDisplay:10.37,2013-05-01 07:25:00,
2013-05-01 00:30:00,73.6,13.6,29.87,WSW,256,11.5,11.5,10,0.00,CLR,,0.00,WeatherDisplay:10.37,2013-05-01 07:30:00,
2013-05-01 00:35:00,73.4,13.5,29.87,NW,311,16.1,16.1,10,0.00,CLR,,0.00,WeatherDisplay:10.37,2013-05-01 07:35:00,
2013-05-01 00:40:00,73.3,13.4,29.87,North,360,21.9,21.9,10,0.00,CLR,,0.00,WeatherDisplay:10.37,2013-05-01 07:40:00,
2013-05-01 00:45:00,73.2,13.3,29.87,NNW,338,11.5,11.5,10,0.00,CLR,,0.00,WeatherDisplay:10.37,2013-05-01 07:45:00,
2013-05-01 00:50:00,73.1,15.4,29.87,NNW,327,16.1,16.1,11,0.00,CLR,,0.00,WeatherDisplay:10.37,2013-05-01 07:50:00,
2013-05-01 00:55:00,73.1,13.2,29.87,North,356,18.4,18.4,10,0.00,CLR,,0.00,WeatherDisplay:10.37,2013-05-01 07:55:00,
2013-05-01 01:00:00,72.8,15.2,29.87,NNW,333,8.1,8.1,11,0.00,CLR,,0.00,WeatherDisplay:10.37,2013-05-01 08:00:00,
2013-05-01 01:05:00,72.4,14.9,29.88,NW,311,10.4,10.4,11,0.00,CLR,,0.00,WeatherDisplay:10.37,2013-05-01 08:05:00,
2013-05-01 01:10:00,72.6,15.0,29.87,NNW,338,15.0,15.0,11,0.00,CLR,,0.00,WeatherDisplay:10.37,2013-05-01 08:10:00,
2013-05-01 01:15:00,72.6,15.0,29.86,North,5,14.0,14.0,11,0.00,CLR,,0.00,WeatherDisplay:10.37,2013-05-01 08:15:00,
2013-05-01 01:20:00,72.5,14.9,29.86,NW,319,12.7,12.7,11,0.00,CLR,,0.00,WeatherDisplay:10.37,2013-05-01 08:20:00,
2013-05-01 01:25:00,72.5,14.9,29.86,NW,326,15.0,15.0,11,0.00,CLR,,0.00,WeatherDisplay:10.37,2013-05-01 08:25:00,
2013-05-01 01:30:00,72.7,12.9,29.87,NNE,32,25.3,25.3,10,0.00,CLR,,0.00,WeatherDisplay:10.37,2013-05-01 08:30:00,
2013-05-01 01:35:00,72.7,15.1,29.87,NW,307,16.0,16.0,11,0.00,CLR,,0.00,WeatherDisplay:10.37,2013-05-01 08:35:00,
2013-05-01 01:40:00,72.7,15.1,29.87,NW,323,16.1,16.1,11,0.00,CLR,,0.00,WeatherDisplay:10.37,2013-05-01 08:40:00,
2013-05-01 01:45:00,72.5,14.9,29.88,NW,314,20.7,20.7,11,0.00,CLR,,0.00,WeatherDisplay:10.37,2013-05-01 08:45:00,
2013-05-01 01:50:00,72.2,14.7,29.87,NE,43,17.3,17.3,11,0.00,CLR,,0.00,WeatherDisplay:10.37,2013-05-01 08:50:00,
2013-05-01 01:55:00,71.9,14.5,29.87,WNW,302,13.8,13.8,11,0.00,CLR,,0.00,WeatherDisplay:10.37,2013-05-01 08:55:00,
2013-05-01 02:00:00,71.9,14.5,29.88,NW,326,18.4,18.4,11,0.00,CLR,,0.00,WeatherDisplay:10.37,2013-05-01 09:00:00,
2013-05-01 02:05:00,71.9,14.5,29.88,NNW,338,13.8,13.8,11,0.00,CLR,,0.00,WeatherDisplay:10.37,2013-05-01 09:05:00,
2013-05-01 02:10:00,71.8,14.4,29.88,NNW,338,21.0,21.0,11,0.00,CLR,,0.00,WeatherDisplay:10.37,2013-05-01 09:10:00,
2013-05-01 02:15:00,71.6,14.2,29.88,NW,307,13.0,13.0,11,0.00,CLR,,0.00,WeatherDisplay:10.37,2013-05-01 09:15:00,
2013-05-01 02:20:00,71.3,14.0,29.89,WNW,303,8.0,8.0,11,0.00,CLR,,0.00,WeatherDisplay:10.37,2013-05-01 09:20:00,
2013-05-01 02:25:00,71.3,14.0,29.88,North,359,16.1,16.1,11,0.00,CLR,,0.00,WeatherDisplay:10.37,2013-05-01 09:25:00,
2013-05-01 02:30:00,71.2,13.9,29.88,NW,319,8.1,8.1,11,0.00,CLR,,0.00,WeatherDisplay:10.37,2013-05-01 09:30:00,
2013-05-01 02:35:00,70.8,13.6,29.88,WNW,299,11.5,11.5,11,0.00,CLR,,0.00,WeatherDisplay:10.37,2013-05-01 09:35:00,
2013-05-01 02:40:00,70.7,13.5,29.88,NNW,345,9.2,9.2,11,0.00,CLR,,0.00,WeatherDisplay:10.37,2013-05-01 09:40:00,
2013-05-01 02:45:00,70.7,13.5,29.88,NNW,333,9.2,9.2,11,0.00,CLR,,0.00,WeatherDisplay:10.37,2013-05-01 09:45:00,
2013-05-01 02:50:00,70.6,13.5,29.88,WNW,299,17.3,17.3,11,0.00,CLR,,0.00,WeatherDisplay:10.37,2013-05-01 09:50:00,
2013-05-01 02:55:00,70.7,13.5,29.88,NNE,18,11.5,11.5,11,0.00,CLR,,0.00,WeatherDisplay:10.37,2013-05-01 09:55:00,
2013-05-01 03:00:00,70.3,15.2,29.88,NNW,340,11.5,11.5,12,0.00,CLR,,0.00,WeatherDisplay:10.37,2013-05-01 10:00:00,
2013-05-01 03:05:00,70.1,15.1,29.88,North,354,9.2,9.2,12,0.00,CLR,,0.00,WeatherDisplay:10.37,2013-05-01 10:05:00,
2013-05-01 03:10:00,69.7,14.8,29.88,NNW,333,11.5,11.5,12,0.00,CLR,,0.00,WeatherDisplay:10.37,2013-05-01 10:10:00,
2013-05-01 03:15:00,69.4,14.5,29.87,North,5,17.3,17.3,12,0.00,CLR,,0.00,WeatherDisplay:10.37,2013-05-01 10:15:00,
2013-05-01 03:20:00,69.1,16.1,29.87,NNW,347,15.0,15.0,13,0.00,CLR,,0.00,WeatherDisplay:10.37,2013-05-01 10:20:00,
2013-05-01 03:25:00,68.8,15.9,29.86,NW,314,13.8,13.8,13,0.00,CLR,,0.00,WeatherDisplay:10.37,2013-05-01 10:25:00,
2013-05-01 03:30:00,68.8,15.9,29.86,North,1,15.0,15.0,13,0.00,CLR,,0.00,WeatherDisplay:10.37,2013-05-01 10:30:00,
2013-05-01 03:35:00,68.4,15.6,29.86,North,6,15.0,15.0,13,0.00,CLR,,0.00,WeatherDisplay:10.37,2013-05-01 10:35:00,
2013-05-01 03:40:00,68.4,15.6,29.86,NNW,334,10.4,10.4,13,0.00,CLR,,0.00,WeatherDisplay:10.37,2013-05-01 10:40:00,
2013-05-01 03:45:00,68.6,15.7,29.87,WNW,299,12.7,12.7,13,0.00,CLR,,0.00,WeatherDisplay:10.37,2013-05-01 10:45:00,
2013-05-01 03:50:00,68.9,16.0,29.87,NNW,329,11.5,11.5,13,0.00,CLR,,0.00,WeatherDisplay:10.37,2013-05-01 10:50:00,
2013-05-01 03:55:00,69.0,14.2,29.87,NW,314,9.2,9.2,12,0.00,CLR,,0.00,WeatherDisplay:10.37,2013-05-01 10:55:00,
2013-05-01 04:00:00,69.0,16.0,29.87,NNW,347,11.5,11.5,13,0.00,CLR,,0.00,WeatherDisplay:10.37,2013-05-01 11:00:00,
2013-05-01 04:05:00,68.9,16.0,29.87,NW,318,8.1,8.1,13,0.00,CLR,,0.00,WeatherDisplay:10.37,2013-05-01 11:05:00,
2013-05-01 04:10:00,69.0,16.0,29.88,NW,325,10.4,10.4,13,0.00,CLR,,0.00,WeatherDisplay:10.37,2013-05-01 11:10:00,
2013-05-01 04:15:00,69.0,14.2,29.88,NNW,338,10.4,10.4,12,0.00,CLR,,0.00,WeatherDisplay:10.37,2013-05-01 11:15:00,
2013-05-01 04:20:00,68.9,16.0,29.88,NNW,347,9.0,9.0,13,0.00,CLR,,0.00,WeatherDisplay:10.37,2013-05-01 11:20:00,
2013-05-01 04:25:00,68.8,15.9,29.87,NW,316,9.2,9.2,13,0.00,CLR,,0.00,WeatherDisplay:10.37,2013-05-01 11:25:00,
2013-05-01 04:30:00,68.8,15.9,29.88,North,353,9.2,9.2,13,0.00,CLR,,0.00,WeatherDisplay:10.37,2013-05-01 11:30:00,
2013-05-01 04:35:00,68.9,16.0,29.88,WNW,296,9.2,9.2,13,0.00,CLR,,0.00,WeatherDisplay:10.37,2013-05-01 11:35:00,
2013-05-01 04:40:00,68.8,15.9,29.88,NW,308,6.9,6.9,13,0.00,CLR,,0.00,WeatherDisplay:10.37,2013-05-01 11:40:00,
2013-05-01 04:45:00,68.7,15.8,29.88,NW,322,12.0,12.0,13,0.00,CLR,,0.00,WeatherDisplay:10.37,2013-05-01 11:45:00,
2013-05-01 04:50:00,68.8,15.9,29.88,WNW,300,9.2,9.2,13,0.00,CLR,,0.00,WeatherDisplay:10.37,2013-05-01 11:50:00,
2013-05-01 04:55:00,69.1,14.3,29.88,NNW,333,10.0,10.0,12,0.00,CLR,,0.00,WeatherDisplay:10.37,2013-05-01 11:55:00,
2013-05-01 05:00:00,69.0,16.0,29.88,WNW,298,8.1,8.1,13,0.00,CLR,,0.00,WeatherDisplay:10.37,2013-05-01 12:00:00,
2013-05-01 05:05:00,69.2,14.4,29.88,NNW,347,16.0,16.0,12,0.00,CLR,,0.00,WeatherDisplay:10.37,2013-05-01 12:05:00,
2013-05-01 05:10:00,69.1,14.3,29.89,NW,305,8.1,8.1,12,0.00,CLR,,0.00,WeatherDisplay:10.37,2013-05-01 12:10:00,
2013-05-01 05:15:00,69.0,16.0,29.89,NNW,333,10.4,10.4,13,0.00,CLR,,0.00,WeatherDisplay:10.37,2013-05-01 12:15:00,
2013-05-01 05:20:00,68.8,14.1,29.89,NW,311,11.5,11.5,12,0.00,CLR,,0.00,WeatherDisplay:10.37,2013-05-01 12:20:00,
2013-05-01 05:25:00,68.7,14.0,29.90,WNW,291,19.6,19.6,12,0.00,CLR,,0.00,WeatherDisplay:10.37,2013-05-01 12:25:00,
2013-05-01 05:30:00,68.5,15.7,29.90,WNW,297,11.5,11.5,13,0.00,CLR,,0.00,WeatherDisplay:10.37,2013-05-01 12:30:00,
2013-05-01 05:36:00,68.1,15.3,29.90,NW,316,12.7,12.7,13,0.00,CLR,,0.00,WeatherDisplay:10.37,2013-05-01 12:36:00,
2013-05-01 05:41:00,67.9,15.2,29.90,NW,318,11.0,11.0,13,0.00,CLR,,0.00,WeatherDisplay:10.37,2013-05-01 12:41:00,
2013-05-01 05:46:00,67.7,15.0,29.90,North,349,12.7,12.7,13,0.00,CLR,,0.00,WeatherDisplay:10.37,2013-05-01 12:46:00,
2013-05-01 05:51:00,67.4,14.8,29.90,NNW,340,11.5,11.5,13,0.00,CLR,,0.00,WeatherDisplay:10.37,2013-05-01 12:51:00,
2013-05-01 05:56:00,67.3,14.7,29.91,NW,314,13.8,13.8,13,0.00,CLR,,0.00,WeatherDisplay:10.37,2013-05-01 12:56:00,
2013-05-01 06:01:00,67.4,14.8,29.91,North,349,17.3,17.3,13,0.00,CLR,,0.00,WeatherDisplay:10.37,2013-05-01 13:01:00,
2013-05-01 06:06:00,67.3,14.7,29.91,North,353,17.3,17.3,13,0.00,CLR,,0.00,WeatherDisplay:10.37,2013-05-01 13:06:00,
2013-05-01 06:11:00,67.0,16.2,29.91,WNW,297,11.5,11.5,14,0.00,CLR,,0.00,WeatherDisplay:10.37,2013-05-01 13:11:00,
2013-05-01 06:16:00,67.0,16.2,29.91,NNW,338,13.8,13.8,14,0.00,CLR,,0.00,WeatherDisplay:10.37,2013-05-01 13:16:00,
2013-05-01 06:21:00,66.9,16.1,29.92,NNE,16,15.0,15.0,14,0.00,CLR,,0.00,WeatherDisplay:10.37,2013-05-01 13:21:00,
2013-05-01 06:26:00,66.8,16.0,29.92,NNW,344,17.3,17.3,14,0.00,CLR,,0.00,WeatherDisplay:10.37,2013-05-01 13:26:00,
2013-05-01 06:31:00,66.7,15.9,29.92,NNW,331,17.0,17.0,14,0.00,CLR,,0.00,WeatherDisplay:10.37,2013-05-01 13:31:00,
2013-05-01 06:36:00,66.5,15.8,29.92,NNW,331,16.1,16.1,14,0.00,CLR,,0.00,WeatherDisplay:10.37,2013-05-01 13:36:00,
2013-05-01 06:41:00,66.3,15.6,29.93,North,349,17.3,17.3,14,0.00,CLR,,0.00,WeatherDisplay:10.37,2013-05-01 13:41:00,
2013-05-01 06:46:00,66.2,17.1,29.93,North,360,16.1,16.1,15,0.00,CLR,,0.00,WeatherDisplay:10.37,2013-05-01 13:46:00,
2013-05-01 06:51:00,66.4,17.3,29.93,NNW,342,16.1,16.1,15,0.00,CLR,,0.00,WeatherDisplay:10.37,2013-05-01 13:51:00,
2013-05-01 06:56:00,66.4,17.3,29.93,North,11,16.1,16.1,15,0.00,CLR,,0.00,WeatherDisplay:10.37,2013-05-01 13:56:00,
2013-05-01 07:01:00,66.8,16.0,29.93,NNW,342,18.4,18.4,14,0.00,CLR,,0.00,WeatherDisplay:10.37,2013-05-01 14:01:00,
2013-05-01 07:06:00,66.9,17.7,29.93,NW,307,15.0,15.0,15,0.00,CLR,,0.00,WeatherDisplay:10.37,2013-05-01 14:06:00,
2013-05-01 07:11:00,67.2,16.3,29.93,North,8,15.0,15.0,14,0.00,CLR,,0.00,WeatherDisplay:10.37,2013-05-01 14:11:00,
2013-05-01 07:16:00,67.3,16.4,29.94,NW,326,24.2,24.2,14,0.00,CLR,,0.00,WeatherDisplay:10.37,2013-05-01 14:16:00,
2013-05-01 07:21:00,67.5,16.6,29.94,North,349,19.6,19.6,14,0.00,CLR,,0.00,WeatherDisplay:10.37,2013-05-01 14:21:00,
2013-05-01 07:26:00,67.6,16.6,29.95,NNE,27,23.0,23.0,14,0.00,CLR,,0.00,WeatherDisplay:10.37,2013-05-01 14:26:00,
2013-05-01 07:31:00,67.7,16.7,29.95,NNE,12,17.3,17.3,14,0.00,CLR,,0.00,WeatherDisplay:10.37,2013-05-01 14:31:00,
2013-05-01 07:36:00,67.7,16.7,29.95,NNW,340,19.6,19.6,14,0.00,CLR,,0.00,WeatherDisplay:10.37,2013-05-01 14:36:00,
2013-05-01 07:41:00,67.8,16.8,29.95,North,9,19.6,19.6,14,0.00,CLR,,0.00,WeatherDisplay:10.37,2013-05-01 14:41:00,
2013-05-01 07:46:00,68.0,17.0,29.95,North,349,19.6,19.6,14,0.00,CLR,,0.00,WeatherDisplay:10.37,2013-05-01 14:46:00,
2013-05-01 07:51:00,68.1,18.7,29.95,NNW,336,16.1,16.1,15,0.00,CLR,,0.00,WeatherDisplay:10.37,2013-05-01 14:51:00,
2013-05-01 07:56:00,68.3,17.2,29.95,North,360,19.6,19.6,14,0.00,CLR,,0.00,WeatherDisplay:10.37,2013-05-01 14:56:00,
2013-05-01 08:01:00,68.4,17.3,29.96,North,11,20.7,20.7,14,0.00,CLR,,0.00,WeatherDisplay:10.37,2013-05-01 15:01:00,
2013-05-01 08:06:00,68.6,19.1,29.96,NNW,342,15.0,15.0,15,0.00,CLR,,0.00,WeatherDisplay:10.37,2013-05-01 15:06:00,
2013-05-01 08:11:00,68.8,17.6,29.97,NNW,338,15.0,15.0,14,0.00,CLR,,0.00,WeatherDisplay:10.37,2013-05-01 15:11:00,
2013-05-01 08:16:00,68.9,17.7,29.97,NNE,32,16.1,16.1,14,0.00,CLR,,0.00,WeatherDisplay:10.37,2013-05-01 15:16:00,
2013-05-01 08:21:00,69.0,17.8,29.97,NNE,29,17.3,17.3,14,0.00,CLR,,0.00,WeatherDisplay:10.37,2013-05-01 15:21:00,
2013-05-01 08:26:00,69.3,18.0,29.97,NNW,345,12.7,12.7,14,0.00,CLR,,0.00,WeatherDisplay:10.37,2013-05-01 15:26:00,
2013-05-01 08:31:00,69.6,19.9,29.97,North,351,16.1,16.1,15,0.00,CLR,,0.00,WeatherDisplay:10.37,2013-05-01 15:31:00,
2013-05-01 08:36:00,69.6,16.5,29.97,North,352,13.8,13.8,13,0.00,CLR,,0.00,WeatherDisplay:10.37,2013-05-01 15:36:00,
2013-05-01 08:41:00,69.9,18.5,29.97,NNE,17,11.5,11.5,14,0.00,CLR,,0.00,WeatherDisplay:10.37,2013-05-01 15:41:00,
2013-05-01 08:46:00,70.2,20.3,29.97,North,357,15.0,15.0,15,0.00,CLR,,0.00,WeatherDisplay:10.37,2013-05-01 15:46:00,
2013-05-01 08:51:00,70.3,18.8,29.97,NE,52,15.0,15.0,14,0.00,CLR,,0.00,WeatherDisplay:10.37,2013-05-01 15:51:00,
2013-05-01 08:56:00,70.6,17.3,29.97,NNW,345,16.1,16.1,13,0.00,CLR,,0.00,WeatherDisplay:10.37,2013-05-01 15:56:00,
2013-05-01 09:01:00,71.1,15.9,29.97,NNW,342,18.4,18.4,12,0.00,CLR,,0.00,WeatherDisplay:10.37,2013-05-01 16:01:00,
2013-05-01 09:06:00,71.4,21.3,29.97,North,353,16.0,16.0,15,0.00,CLR,,0.00,WeatherDisplay:10.37,2013-05-01 16:06:00,
2013-05-01 09:11:00,71.6,19.8,29.98,NNE,17,12.7,12.7,14,0.00,CLR,,0.00,WeatherDisplay:10.37,2013-05-01 16:11:00,
2013-05-01 09:16:00,72.0,18.4,29.97,NE,43,17.3,17.3,13,0.00,CLR,,0.00,WeatherDisplay:10.37,2013-05-01 16:16:00,
2013-05-01 09:21:00,72.0,16.6,29.98,NNW,342,11.5,11.5,12,0.00,CLR,,0.00,WeatherDisplay:10.37,2013-05-01 16:21:00,
2013-05-01 09:26:00,72.3,18.7,29.97,NNE,22,15.0,15.0,13,0.00,CLR,,0.00,WeatherDisplay:10.37,2013-05-01 16:26:00,
2013-05-01 09:31:00,72.8,19.0,29.97,North,353,13.8,13.8,13,0.00,CLR,,0.00,WeatherDisplay:10.37,2013-05-01 16:31:00,
2013-05-01 09:36:00,73.2,17.5,29.97,NNE,23,17.0,17.0,12,0.00,CLR,,0.00,WeatherDisplay:10.37,2013-05-01 16:36:00,
2013-05-01 09:41:00,73.5,19.6,29.97,NNW,338,19.6,19.6,13,0.00,CLR,,0.00,WeatherDisplay:10.37,2013-05-01 16:41:00,
2013-05-01 09:46:00,73.8,18.0,29.97,NW,314,19.6,19.6,12,0.00,CLR,,0.00,WeatherDisplay:10.37,2013-05-01 16:46:00,
2013-05-01 09:51:00,74.3,20.2,29.97,North,4,17.3,17.3,13,0.00,CLR,,0.00,WeatherDisplay:10.37,2013-05-01 16:51:00,
2013-05-01 09:56:00,74.6,20.5,29.97,NNE,32,12.7,12.7,13,0.00,CLR,,0.00,WeatherDisplay:10.37,2013-05-01 16:56:00,
2013-05-01 10:01:00,75.3,19.1,29.97,NNE,16,16.1,16.1,12,0.00,CLR,,0.00,WeatherDisplay:10.37,2013-05-01 17:01:00,
2013-05-01 10:06:00,75.5,17.3,29.97,NNE,25,19.6,19.6,11,0.00,CLR,,0.00,WeatherDisplay:10.37,2013-05-01 17:06:00,
2013-05-01 10:11:00,75.7,19.4,29.98,NNE,14,19.6,19.6,12,0.00,CLR,,0.00,WeatherDisplay:10.37,2013-05-01 17:11:00,
2013-05-01 10:16:00,76.3,17.9,29.98,NNE,28,14.0,14.0,11,0.00,CLR,,0.00,WeatherDisplay:10.37,2013-05-01 17:16:00,
2013-05-01 10:21:00,76.3,17.9,29.98,North,5,17.0,17.0,11,0.00,CLR,,0.00,WeatherDisplay:10.37,2013-05-01 17:21:00,
2013-05-01 10:26:00,76.3,15.7,29.98,NNE,23,19.6,19.6,10,0.00,CLR,,0.00,WeatherDisplay:10.37,2013-05-01 17:26:00,
2013-05-01 10:31:00,76.4,15.7,29.99,NE,44,19.6,19.6,10,0.00,CLR,,0.00,WeatherDisplay:10.37,2013-05-01 17:31:00,
2013-05-01 10:36:00,76.6,15.9,29.98,NE,56,18.4,18.4,10,0.00,CLR,,0.00,WeatherDisplay:10.37,2013-05-01 17:36:00,
2013-05-01 10:41:00,77.2,16.4,29.99,NE,46,13.8,13.8,10,0.00,CLR,,0.00,WeatherDisplay:10.37,2013-05-01 17:41:00,
2013-05-01 10:46:00,77.6,16.7,29.99,North,356,13.8,13.8,10,0.00,CLR,,0.00,WeatherDisplay:10.37,2013-05-01 17:46:00,
2013-05-01 10:51:00,77.8,21.1,29.99,North,11,12.7,12.7,12,0.00,CLR,,0.00,WeatherDisplay:10.37,2013-05-01 17:51:00,
2013-05-01 10:56:00,77.7,16.7,30.00,ENE,74,19.6,19.6,10,0.00,CLR,,0.00,WeatherDisplay:10.37,2013-05-01 17:56:00,
2013-05-01 11:01:00,77.5,16.6,30.00,East,83,17.0,17.0,10,0.00,CLR,,0.00,WeatherDisplay:10.37,2013-05-01 18:01:00,
2013-05-01 11:06:00,77.0,13.8,30.00,ENE,68,18.0,18.0,9,0.00,CLR,,0.00,WeatherDisplay:10.37,2013-05-01 18:06:00,
2013-05-01 11:11:00,76.7,16.0,30.00,NE,47,15.0,15.0,10,0.00,CLR,,0.00,WeatherDisplay:10.37,2013-05-01 18:11:00,
2013-05-01 11:16:00,76.8,16.1,30.01,NNE,32,16.1,16.1,10,0.00,CLR,,0.00,WeatherDisplay:10.37,2013-05-01 18:16:00,
2013-05-01 11:21:00,77.2,13.9,30.01,ENE,58,25.3,25.3,9,0.00,CLR,,0.00,WeatherDisplay:10.37,2013-05-01 18:21:00,
2013-05-01 11:26:00,77.5,16.6,30.01,NNE,33,18.4,18.4,10,0.00,CLR,,0.00,WeatherDisplay:10.37,2013-05-01 18:26:00,
2013-05-01 11:31:00,77.7,14.3,30.01,North,6,15.0,15.0,9,0.00,CLR,,0.00,WeatherDisplay:10.37,2013-05-01 18:31:00,
2013-05-01 11:36:00,78.1,14.6,30.01,NNE,32,19.6,19.6,9,0.00,CLR,,0.00,WeatherDisplay:10.37,2013-05-01 18:36:00,
2013-05-01 11:41:00,78.2,17.1,30.01,North,354,18.4,18.4,10,0.00,CLR,,0.00,WeatherDisplay:10.37,2013-05-01 18:41:00,
2013-05-01 11:46:00,78.4,14.8,30.01,North,11,19.0,19.0,9,0.00,CLR,,0.00,WeatherDisplay:10.37,2013-05-01 18:46:00,
2013-05-01 11:51:00,78.6,19.7,30.01,NNE,32,16.1,16.1,11,0.00,CLR,,0.00,WeatherDisplay:10.37,2013-05-01 18:51:00,
2013-05-01 11:56:00,78.6,17.4,30.01,NNE,25,21.0,21.0,10,0.00,CLR,,0.00,WeatherDisplay:10.37,2013-05-01 18:56:00,
2013-05-01 12:01:00,79.1,17.8,30.01,NE,52,15.0,15.0,10,0.00,CLR,,0.00,WeatherDisplay:10.37,2013-05-01 19:01:00,
2013-05-01 12:06:00,79.6,20.4,30.00,ENE,72,14.0,14.0,11,0.00,CLR,,0.00,WeatherDisplay:10.37,2013-05-01 19:06:00,
2013-05-01 12:11:00,79.8,15.9,30.01,NNW,344,20.7,20.7,9,0.00,CLR,,0.00,WeatherDisplay:10.37,2013-05-01 19:11:00,
2013-05-01 12:16:00,79.5,13.0,30.01,NNE,32,17.3,17.3,8,0.00,CLR,,0.00,WeatherDisplay:10.37,2013-05-01 19:16:00,
2013-05-01 12:21:00,79.6,18.2,30.01,NE,34,11.5,11.5,10,0.00,CLR,,0.00,WeatherDisplay:10.37,2013-05-01 19:21:00,
2013-05-01 12:26:00,80.2,18.7,30.01,ENE,63,20.7,20.7,10,0.00,CLR,,0.00,WeatherDisplay:10.37,2013-05-01 19:26:00,
2013-05-01 12:31:00,80.3,16.3,30.01,North,353,15.0,15.0,9,0.00,CLR,,0.00,WeatherDisplay:10.37,2013-05-01 19:31:00,
2013-05-01 12:36:00,80.7,13.9,30.01,North,6,21.9,21.9,8,0.00,CLR,,0.00,WeatherDisplay:10.37,2013-05-01 19:36:00,
2013-05-01 12:41:00,80.8,14.0,30.01,NE,39,18.4,18.4,8,0.00,CLR,,0.00,WeatherDisplay:10.37,2013-05-01 19:41:00,
2013-05-01 12:46:00,80.8,16.7,30.01,NNE,23,11.5,11.5,9,0.00,CLR,,0.00,WeatherDisplay:10.37,2013-05-01 19:46:00,
2013-05-01 12:51:00,81.4,17.1,30.01,NE,51,11.5,11.5,9,0.00,CLR,,0.00,WeatherDisplay:10.37,2013-05-01 19:51:00,
2013-05-01 12:56:00,81.7,19.8,30.01,NNW,340,12.7,12.7,10,0.00,CLR,,0.00,WeatherDisplay:10.37,2013-05-01 19:56:00,
2013-05-01 13:01:00,82.1,20.1,30.01,East,81,15.0,15.0,10,0.00,CLR,,0.00,WeatherDisplay:10.37,2013-05-01 20:01:00,
2013-05-01 13:06:00,81.7,19.8,30.00,NE,43,13.8,13.8,10,0.00,CLR,,0.00,WeatherDisplay:10.37,2013-05-01 20:06:00,
2013-05-01 13:11:00,82.4,20.3,30.01,NNE,20,11.5,11.5,10,0.00,CLR,,0.00,WeatherDisplay:10.37,2013-05-01 20:11:00,
2013-05-01 13:16:00,82.8,20.6,30.01,NNE,25,13.8,13.8,10,0.00,CLR,,0.00,WeatherDisplay:10.37,2013-05-01 20:16:00,
2013-05-01 13:21:00,82.5,20.4,30.00,North,356,15.0,15.0,10,0.00,CLR,,0.00,WeatherDisplay:10.37,2013-05-01 20:21:00,
2013-05-01 13:26:00,82.5,20.4,30.01,ENE,64,11.5,11.5,10,0.00,CLR,,0.00,WeatherDisplay:10.37,2013-05-01 20:26:00,
2013-05-01 13:31:00,82.6,18.0,30.00,NE,40,12.7,12.7,9,0.00,CLR,,0.00,WeatherDisplay:10.37,2013-05-01 20:31:00,
2013-05-01 13:36:00,82.6,18.0,30.01,East,79,18.4,18.4,9,0.00,CLR,,0.00,WeatherDisplay:10.37,2013-05-01 20:36:00,
2013-05-01 13:41:00,82.3,20.3,30.00,NE,51,17.3,17.3,10,0.00,CLR,,0.00,WeatherDisplay:10.37,2013-05-01 20:41:00,
2013-05-01 13:46:00,82.7,20.6,30.01,NE,56,17.3,17.3,10,0.00,CLR,,0.00,WeatherDisplay:10.37,2013-05-01 20:46:00,
2013-05-01 13:51:00,82.9,20.7,30.01,NE,43,13.8,13.8,10,0.00,CLR,,0.00,WeatherDisplay:10.37,2013-05-01 20:51:00,
2013-05-01 13:56:00,82.7,20.6,30.00,NE,43,14.0,14.0,10,0.00,CLR,,0.00,WeatherDisplay:10.37,2013-05-01 20:56:00,
2013-05-01 14:01:00,82.8,20.6,30.00,East,82,19.6,19.6,10,0.00,CLR,,0.00,WeatherDisplay:10.37,2013-05-01 21:01:00,
2013-05-01 14:06:00,82.9,18.2,30.00,ENE,68,16.1,16.1,9,0.00,CLR,,0.00,WeatherDisplay:10.37,2013-05-01 21:06:00,
2013-05-01 14:11:00,83.0,18.3,30.00,NE,51,13.8,13.8,9,0.00,CLR,,0.00,WeatherDisplay:10.37,2013-05-01 21:11:00,
2013-05-01 14:16:00,83.3,21.0,30.00,NE,47,18.4,18.4,10,0.00,CLR,,0.00,WeatherDisplay:10.37,2013-05-01 21:16:00,
2013-05-01 14:21:00,83.3,23.3,30.00,ENE,67,13.8,13.8,11,0.00,CLR,,0.00,WeatherDisplay:10.37,2013-05-01 21:21:00,
2013-05-01 14:26:00,83.6,21.2,30.00,NE,44,11.0,11.0,10,0.00,CLR,,0.00,WeatherDisplay:10.37,2013-05-01 21:26:00,
2013-05-01 14:31:00,83.8,21.4,30.00,North,9,10.4,10.4,10,0.00,CLR,,0.00,WeatherDisplay:10.37,2013-05-01 21:31:00,
2013-05-01 14:36:00,84.2,21.7,30.00,NE,53,18.4,18.4,10,0.00,CLR,,0.00,WeatherDisplay:10.37,2013-05-01 21:36:00,
2013-05-01 14:41:00,84.2,21.7,30.00,NNE,29,16.1,16.1,10,0.00,CLR,,0.00,WeatherDisplay:10.37,2013-05-01 21:41:00,
2013-05-01 14:46:00,84.2,21.7,30.00,ENE,63,13.8,13.8,10,0.00,CLR,,0.00,WeatherDisplay:10.37,2013-05-01 21:46:00,
2013-05-01 14:51:00,84.5,19.4,30.00,North,360,15.0,15.0,9,0.00,CLR,,0.00,WeatherDisplay:10.37,2013-05-01 21:51:00,
2013-05-01 14:56:00,84.4,21.9,30.00,North,355,15.0,15.0,10,0.00,CLR,,0.00,WeatherDisplay:10.37,2013-05-01 21:56:00,
2013-05-01 15:01:00,84.6,19.5,30.00,NE,52,13.8,13.8,9,0.00,CLR,,0.00,WeatherDisplay:10.37,2013-05-01 22:01:00,
2013-05-01 15:06:00,84.6,22.0,30.00,NNE,15,12.7,12.7,10,0.00,CLR,,0.00,WeatherDisplay:10.37,2013-05-01 22:06:00,
2013-05-01 15:11:00,85.1,22.4,29.99,NE,36,12.0,12.0,10,0.00,CLR,,0.00,WeatherDisplay:10.37,2013-05-01 22:11:00,
2013-05-01 15:16:00,84.8,19.7,30.00,NNE,16,19.6,19.6,9,0.00,CLR,,0.00,WeatherDisplay:10.37,2013-05-01 22:16:00,
2013-05-01 15:21:00,84.8,24.4,29.99,NNE,29,11.5,11.5,11,0.00,CLR,,0.00,WeatherDisplay:10.37,2013-05-01 22:21:00,
2013-05-01 15:26:00,85.0,22.3,29.99,ENE,63,13.8,13.8,10,0.00,CLR,,0.00,WeatherDisplay:10.37,2013-05-01 22:26:00,
2013-05-01 15:31:00,85.3,22.5,29.99,NNE,32,15.0,15.0,10,0.00,CLR,,0.00,WeatherDisplay:10.37,2013-05-01 22:31:00,
2013-05-01 15:36:00,85.5,22.7,29.99,NE,56,16.1,16.1,10,0.00,CLR,,0.00,WeatherDisplay:10.37,2013-05-01 22:36:00,
2013-05-01 15:41:00,85.9,25.3,29.99,NE,46,15.0,15.0,11,0.00,CLR,,0.00,WeatherDisplay:10.37,2013-05-01 22:41:00,
2013-05-01 15:46:00,85.6,20.3,29.99,NNE,23,14.0,14.0,9,0.00,CLR,,0.00,WeatherDisplay:10.37,2013-05-01 22:46:00,
2013-05-01 15:51:00,85.3,24.8,29.99,NE,44,12.0,12.0,11,0.00,CLR,,0.00,WeatherDisplay:10.37,2013-05-01 22:51:00,
2013-05-01 15:56:00,85.5,25.0,29.99,ENE,63,8.1,8.1,11,0.00,CLR,,0.00,WeatherDisplay:10.37,2013-05-01 22:56:00,
2013-05-01 16:01:00,85.9,23.0,29.99,NE,45,12.0,12.0,10,0.00,CLR,,0.00,WeatherDisplay:10.37,2013-05-01 23:01:00,
2013-05-01 16:06:00,85.7,25.1,29.99,NNE,12,14.0,14.0,11,0.00,CLR,,0.00,WeatherDisplay:10.37,2013-05-01 23:06:00,
2013-05-01 16:11:00,85.5,22.7,29.99,NNE,12,13.0,13.0,10,0.00,CLR,,0.00,WeatherDisplay:10.37,2013-05-01 23:11:00,
2013-05-01 16:16:00,85.8,22.9,29.99,ENE,60,12.7,12.7,10,0.00,CLR,,0.00,WeatherDisplay:10.37,2013-05-01 23:16:00,
2013-05-01 16:21:00,85.7,25.1,29.99,NE,56,12.0,12.0,11,0.00,CLR,,0.00,WeatherDisplay:10.37,2013-05-01 23:21:00,
2013-05-01 16:26:00,85.8,25.2,29.99,NNE,32,17.3,17.3,11,0.00,CLR,,0.00,WeatherDisplay:10.37,2013-05-01 23:26:00,
2013-05-01 16:31:00,86.2,23.2,29.99,NNW,347,10.4,10.4,10,0.00,CLR,,0.00,WeatherDisplay:10.37,2013-05-01 23:31:00,
2013-05-01 16:36:00,86.4,23.4,29.99,NNE,30,12.0,12.0,10,0.00,CLR,,0.00,WeatherDisplay:10.37,2013-05-01 23:36:00,
2013-05-01 16:41:00,86.4,25.7,29.99,NE,36,8.1,8.1,11,0.00,CLR,,0.00,WeatherDisplay:10.37,2013-05-01 23:41:00,
2013-05-01 16:46:00,86.4,23.4,29.99,North,5,15.0,15.0,10,0.00,CLR,,0.00,WeatherDisplay:10.37,2013-05-01 23:46:00,
2013-05-01 16:51:00,86.0,25.4,29.99,ENE,58,8.1,8.1,11,0.00,CLR,,0.00,WeatherDisplay:10.37,2013-05-01 23:51:00,
2013-05-01 16:56:00,86.2,25.5,29.99,NE,52,12.7,12.7,11,0.00,CLR,,0.00,WeatherDisplay:10.37,2013-05-01 23:56:00,
2013-05-01 17:01:00,86.3,23.3,29.99,NNE,15,11.5,11.5,10,0.00,CLR,,0.00,WeatherDisplay:10.37,2013-05-02 00:01:00,
2013-05-01 17:06:00,86.3,23.3,29.99,NNE,32,12.7,12.7,10,0.00,CLR,,0.00,WeatherDisplay:10.37,2013-05-02 00:06:00,
2013-05-01 17:11:00,86.3,27.7,29.99,NE,46,9.2,9.2,12,0.00,CLR,,0.00,WeatherDisplay:10.37,2013-05-02 00:11:00,
2013-05-01 17:16:00,86.4,25.7,29.99,NNE,22,11.5,11.5,11,0.00,CLR,,0.00,WeatherDisplay:10.37,2013-05-02 00:16:00,
2013-05-01 17:21:00,86.1,25.4,29.99,NE,54,11.5,11.5,11,0.00,CLR,,0.00,WeatherDisplay:10.37,2013-05-02 00:21:00,
2013-05-01 17:26:00,86.1,20.6,29.99,NE,43,13.0,13.0,9,0.00,CLR,,0.00,WeatherDisplay:10.37,2013-05-02 00:26:00,
2013-05-01 17:31:00,86.2,23.2,29.99,North,5,11.5,11.5,10,0.00,CLR,,0.00,WeatherDisplay:10.37,2013-05-02 00:31:00,
2013-05-01 17:36:00,86.0,20.6,29.99,NE,54,11.5,11.5,9,0.00,CLR,,0.00,WeatherDisplay:10.37,2013-05-02 00:36:00,
2013-05-01 17:41:00,85.9,20.5,29.99,NNE,19,11.5,11.5,9,0.00,CLR,,0.00,WeatherDisplay:10.37,2013-05-02 00:41:00,
2013-05-01 17:46:00,86.0,20.6,29.99,NE,51,11.5,11.5,9,0.00,CLR,,0.00,WeatherDisplay:10.37,2013-05-02 00:46:00,
2013-05-01 17:51:00,86.2,20.7,29.99,North,10,11.5,11.5,9,0.00,CLR,,0.00,WeatherDisplay:10.37,2013-05-02 00:51:00,
2013-05-01 17:56:00,86.0,23.1,29.99,NE,49,17.3,17.3,10,0.00,CLR,,0.00,WeatherDisplay:10.37,2013-05-02 00:56:00,
2013-05-01 18:01:00,85.9,23.0,29.99,NNE,22,11.5,11.5,10,0.00,CLR,,0.00,WeatherDisplay:10.37,2013-05-02 01:01:00,
2013-05-01 18:06:00,86.0,20.6,29.99,NE,40,13.0,13.0,9,0.00,CLR,,0.00,WeatherDisplay:10.37,2013-05-02 01:06:00,
2013-05-01 18:11:00,85.8,20.4,29.99,NE,46,15.0,15.0,9,0.00,CLR,,0.00,WeatherDisplay:10.37,2013-05-02 01:11:00,
2013-05-01 18:16:00,85.7,22.8,29.99,ENE,70,11.5,11.5,10,0.00,CLR,,0.00,WeatherDisplay:10.37,2013-05-02 01:16:00,
2013-05-01 18:21:00,85.7,22.8,29.99,NE,50,12.7,12.7,10,0.00,CLR,,0.00,WeatherDisplay:10.37,2013-05-02 01:21:00,
2013-05-01 18:26:00,85.7,22.8,29.99,North,360,8.1,8.1,10,0.00,CLR,,0.00,WeatherDisplay:10.37,2013-05-02 01:26:00,
2013-05-01 18:31:00,85.6,20.3,29.99,NE,41,11.5,11.5,9,0.00,CLR,,0.00,WeatherDisplay:10.37,2013-05-02 01:31:00,
2013-05-01 18:36:00,85.5,22.7,29.99,ENE,58,9.2,9.2,10,0.00,CLR,,0.00,WeatherDisplay:10.37,2013-05-02 01:36:00,
2013-05-01 18:41:00,85.4,22.6,29.99,NNE,23,6.9,6.9,10,0.00,CLR,,0.00,WeatherDisplay:10.37,2013-05-02 01:41:00,
2013-05-01 18:46:00,85.4,24.9,30.00,ENE,64,4.6,4.6,11,0.00,CLR,,0.00,WeatherDisplay:10.37,2013-05-02 01:46:00,
2013-05-01 18:51:00,85.2,26.8,30.00,North,360,9.2,9.2,12,0.00,CLR,,0.00,WeatherDisplay:10.37,2013-05-02 01:51:00,
2013-05-01 18:56:00,84.9,24.5,30.00,ENE,60,5.8,5.8,11,0.00,CLR,,0.00,WeatherDisplay:10.37,2013-05-02 01:56:00,
2013-05-01 19:01:00,84.8,26.5,30.00,NNW,338,6.0,6.0,12,0.00,CLR,,0.00,WeatherDisplay:10.37,2013-05-02 02:01:00,
2013-05-01 19:06:00,84.6,26.4,30.00,NNW,332,3.5,3.5,12,0.00,CLR,,0.00,WeatherDisplay:10.37,2013-05-02 02:06:00,
2013-05-01 19:11:00,84.4,24.1,30.00,NNW,338,4.6,4.6,11,0.00,CLR,,0.00,WeatherDisplay:10.37,2013-05-02 02:11:00,
2013-05-01 19:16:00,84.0,25.9,30.00,NNW,343,3.5,3.5,12,0.00,CLR,,0.00,WeatherDisplay:10.37,2013-05-02 02:16:00,
2013-05-01 19:21:00,83.8,23.7,30.00,NNE,19,5.8,5.8,11,0.00,CLR,,0.00,WeatherDisplay:10.37,2013-05-02 02:21:00,
2013-05-01 19:26:00,83.6,23.5,30.00,ENE,60,4.6,4.6,11,0.00,CLR,,0.00,WeatherDisplay:10.37,2013-05-02 02:26:00,
2013-05-01 19:31:00,83.5,23.4,30.00,NNW,327,5.8,5.8,11,0.00,CLR,,0.00,WeatherDisplay:10.37,2013-05-02 02:31:00,
2013-05-01 19:36:00,83.4,23.4,30.00,NW,319,3.5,3.5,11,0.00,CLR,,0.00,WeatherDisplay:10.37,2013-05-02 02:36:00,
2013-05-01 19:41:00,83.2,25.3,30.01,NW,319,2.3,2.3,12,0.00,CLR,,0.00,WeatherDisplay:10.37,2013-05-02 02:41:00,
2013-05-01 19:46:00,82.7,22.8,30.01,North,1,5.8,5.8,11,0.00,CLR,,0.00,WeatherDisplay:10.37,2013-05-02 02:46:00,
2013-05-01 19:51:00,81.6,26.0,30.01,North,1,1.1,1.1,13,0.00,CLR,,0.00,WeatherDisplay:10.37,2013-05-02 02:51:00,
2013-05-01 19:56:00,81.3,23.8,30.01,NW,321,5.0,5.0,12,0.00,CLR,,0.00,WeatherDisplay:10.37,2013-05-02 02:56:00,
2013-05-01 20:01:00,81.5,21.9,30.01,NNE,13,8.1,8.1,11,0.00,CLR,,0.00,WeatherDisplay:10.37,2013-05-02 03:01:00,
2013-05-01 20:06:00,81.7,22.0,30.01,NNW,336,5.8,5.8,11,0.00,CLR,,0.00,WeatherDisplay:10.37,2013-05-02 03:06:00,
2013-05-01 20:11:00,81.4,23.9,30.02,NW,309,4.6,4.6,12,0.00,CLR,,0.00,WeatherDisplay:10.37,2013-05-02 03:11:00,
2013-05-01 20:16:00,81.2,23.7,30.02,North,349,5.0,5.0,12,0.00,CLR,,0.00,WeatherDisplay:10.37,2013-05-02 03:16:00,
2013-05-01 20:21:00,81.1,23.7,30.02,NW,310,2.3,2.3,12,0.00,CLR,,0.00,WeatherDisplay:10.37,2013-05-02 03:21:00,
2013-05-01 20:26:00,80.4,23.1,30.02,NW,312,3.5,3.5,12,0.00,CLR,,0.00,WeatherDisplay:10.37,2013-05-02 03:26:00,
2013-05-01 20:31:00,79.7,27.9,30.02,NW,309,2.3,2.3,15,0.00,CLR,,0.00,WeatherDisplay:10.37,2013-05-02 03:31:00,
2013-05-01 20:36:00,79.1,25.8,30.02,NW,311,3.5,3.5,14,0.00,CLR,,0.00,WeatherDisplay:10.37,2013-05-02 03:36:00,
2013-05-01 20:41:00,78.2,25.1,30.02,NNW,340,3.5,3.5,14,0.00,CLR,,0.00,WeatherDisplay:10.37,2013-05-02 03:41:00,
2013-05-01 20:46:00,76.7,25.5,30.02,NNE,27,3.5,3.5,15,0.00,CLR,,0.00,WeatherDisplay:10.37,2013-05-02 03:46:00,
2013-05-01 20:51:00,75.3,26.0,30.03,NW,309,3.5,3.5,16,0.00,CLR,,0.00,WeatherDisplay:10.37,2013-05-02 03:51:00,
2013-05-01 20:56:00,76.1,25.1,30.03,NW,322,3.5,3.5,15,0.00,CLR,,0.00,WeatherDisplay:10.37,2013-05-02 03:56:00,
2013-05-01 21:01:00,76.1,25.1,30.03,WNW,302,5.0,5.0,15,0.00,CLR,,0.00,WeatherDisplay:10.37,2013-05-02 04:01:00,
2013-05-01 21:02:00,76.3,25.2,30.03,WNW,300,4.6,4.6,15,0.00,CLR,,0.00,WeatherDisplay:10.37,2013-05-02 04:02:00,
2013-05-01 21:03:00,76.4,25.3,30.03,NW,309,3.5,3.5,15,0.00,CLR,,0.00,WeatherDisplay:10.37,2013-05-02 04:03:00,
2013-05-01 21:04:00,76.6,25.5,30.03,WNW,293,4.0,4.0,15,0.00,CLR,,0.00,WeatherDisplay:10.37,2013-05-02 04:04:00,
2013-05-01 21:07:00,77.4,26.1,30.03,West,266,3.5,3.5,15,0.00,CLR,,0.00,WeatherDisplay:10.37,2013-05-02 04:07:00,
2013-05-01 21:12:00,77.7,24.7,30.03,NNW,342,4.0,4.0,14,0.00,CLR,,0.00,WeatherDisplay:10.37,2013-05-02 04:12:00,
2013-05-01 21:17:00,77.6,26.3,30.04,NW,304,3.5,3.5,15,0.00,CLR,,0.00,WeatherDisplay:10.37,2013-05-02 04:17:00,
2013-05-01 21:22:00,77.3,24.4,30.04,NW,322,5.8,5.8,14,0.00,CLR,,0.00,WeatherDisplay:10.37,2013-05-02 04:22:00,
2013-05-01 21:27:00,77.6,24.6,30.04,WNW,298,3.5,3.5,14,0.00,CLR,,0.00,WeatherDisplay:10.37,2013-05-02 04:27:00,
2013-05-01 21:32:00,76.8,25.6,30.04,WNW,303,2.3,2.3,15,0.00,CLR,,0.00,WeatherDisplay:10.37,2013-05-02 04:32:00,
2013-05-01 21:37:00,76.2,26.7,30.04,WNW,294,2.3,2.3,16,0.00,CLR,,0.00,WeatherDisplay:10.37,2013-05-02 04:37:00,
2013-05-01 21:42:00,75.9,24.9,30.05,NW,312,4.6,4.6,15,0.00,CLR,,0.00,WeatherDisplay:10.37,2013-05-02 04:42:00,
2013-05-01 21:47:00,76.6,25.5,30.05,West,276,3.5,3.5,15,0.00,CLR,,0.00,WeatherDisplay:10.37,2013-05-02 04:47:00,
2013-05-01 21:52:00,76.5,23.7,30.05,NW,307,3.5,3.5,14,0.00,CLR,,0.00,WeatherDisplay:10.37,2013-05-02 04:52:00,
2013-05-01 21:57:00,76.6,25.5,30.05,NW,305,3.5,3.5,15,0.00,CLR,,0.00,WeatherDisplay:10.37,2013-05-02 04:57:00,
2013-05-01 22:02:00,76.4,23.6,30.05,NW,309,3.5,3.5,14,0.00,CLR,,0.00,WeatherDisplay:10.37,2013-05-02 05:02:00,
2013-05-01 22:07:00,76.6,23.8,30.05,NW,311,3.5,3.5,14,0.00,CLR,,0.00,WeatherDisplay:10.37,2013-05-02 05:07:00,
2013-05-01 22:12:00,77.1,24.2,30.05,WNW,303,2.3,2.3,14,0.00,CLR,,0.00,WeatherDisplay:10.37,2013-05-02 05:12:00,
2013-05-01 22:17:00,77.1,22.4,30.05,NW,325,6.0,6.0,13,0.00,CLR,,0.00,WeatherDisplay:10.37,2013-05-02 05:17:00,
2013-05-01 22:22:00,76.9,24.0,30.05,WNW,300,3.0,3.0,14,0.00,CLR,,0.00,WeatherDisplay:10.37,2013-05-02 05:22:00,
2013-05-01 22:27:00,77.5,20.8,30.05,WNW,298,4.6,4.6,12,0.00,CLR,,0.00,WeatherDisplay:10.37,2013-05-02 05:27:00,
2013-05-01 22:32:00,77.3,22.6,30.05,SW,236,1.1,1.1,13,0.00,CLR,,0.00,WeatherDisplay:10.37,2013-05-02 05:32:00,
2013-05-01 22:37:00,75.8,39.4,30.05,SSW,210,4.6,4.6,27,0.00,CLR,,0.00,WeatherDisplay:10.37,2013-05-02 05:37:00,
2013-05-01 22:42:00,72.3,40.0,30.05,South,176,5.8,5.8,31,0.00,CLR,,0.00,WeatherDisplay:10.37,2013-05-02 05:42:00,
2013-05-01 22:47:00,70.3,42.1,30.06,SSW,207,4.0,4.0,36,0.00,CLR,,0.00,WeatherDisplay:10.37,2013-05-02 05:47:00,
2013-05-01 22:52:00,68.9,42.2,30.06,SSW,201,3.5,3.5,38,0.00,CLR,,0.00,WeatherDisplay:10.37,2013-05-02 05:52:00,
2013-05-01 22:57:00,67.9,42.7,30.06,SSE,158,5.0,5.0,40,0.00,CLR,,0.00,WeatherDisplay:10.37,2013-05-02 05:57:00,
2013-05-01 23:02:00,67.2,42.7,30.07,SSE,163,6.9,6.9,41,0.00,CLR,,0.00,WeatherDisplay:10.37,2013-05-02 06:02:00,
2013-05-01 23:07:00,66.6,42.8,30.07,SSW,201,5.8,5.8,42,0.00,CLR,,0.00,WeatherDisplay:10.37,2013-05-02 06:07:00,
2013-05-01 23:12:00,66.2,43.0,30.07,SSE,160,4.6,4.6,43,0.00,CLR,,0.00,WeatherDisplay:10.37,2013-05-02 06:12:00,
2013-05-01 23:17:00,65.8,42.7,30.07,SW,217,2.3,2.3,43,0.00,CLR,,0.00,WeatherDisplay:10.37,2013-05-02 06:17:00,
2013-05-01 23:22:00,65.4,42.9,30.07,WSW,242,1.1,1.1,44,0.00,CLR,,0.00,WeatherDisplay:10.37,2013-05-02 06:22:00,
2013-05-01 23:27:00,64.9,43.0,30.07,SW,219,2.3,2.3,45,0.00,CLR,,0.00,WeatherDisplay:10.37,2013-05-02 06:27:00,
2013-05-01 23:32:00,64.5,43.3,30.07,SW,221,3.5,3.5,46,0.00,CLR,,0.00,WeatherDisplay:10.37,2013-05-02 06:32:00,
2013-05-01 23:37:00,64.2,43.0,30.07,SW,228,2.3,2.3,46,0.00,CLR,,0.00,WeatherDisplay:10.37,2013-05-02 06:37:00,
2013-05-01 23:42:00,63.9,43.3,30.07,WSW,243,2.0,2.0,47,0.00,CLR,,0.00,WeatherDisplay:10.37,2013-05-02 06:42:00,
2013-05-01 23:47:00,63.5,43.4,30.07,SW,224,2.3,2.3,48,0.00,CLR,,0.00,WeatherDisplay:10.37,2013-05-02 06:47:00,
2013-05-01 23:52:00,63.2,43.2,30.08,SW,235,2.0,2.0,48,0.00,CLR,,0.00,WeatherDisplay:10.37,2013-05-02 06:52:00,
2013-05-01 23:57:00,62.8,43.3,30.08,WSW,240,1.1,0.0,49,0.00,CLR,,0.00,WeatherDisplay:10.37,2013-05-02 06:57:00,